Time;durP1;ratioP1;P1;durP2;ratioP2;P2;SDS_P1;SDS_P2;PMS_P1;PMS_P2;Temp;Humidity;BMP_temperature;BMP_pressure;BME280_temperature;BME280_humidity;BME280_pressure;Samples;Min_cycle;Max_cycle;Signal;HPM_P1;HPM_P2
2021/06/21 00:00:00;;;;;;;10.63;2.53;;;;;;;15.80;95.02;95483.69;5096157;28;20135;-68
2021/06/21 00:02:26;;;;;;;13.57;3.03;;;;;;;15.77;95.53;95479.75;5114639;28;20059;-67
2021/06/21 00:04:53;;;;;;;13.68;2.60;;;;;;;15.74;95.14;95477.66;5114604;28;20100;-67
2021/06/21 00:07:20;;;;;;;12.02;2.90;;;;;;;15.76;94.97;95472.88;5095696;28;20043;-68
2021/06/21 00:09:46;;;;;;;10.02;2.45;;;;;;;15.73;95.26;95474.22;5113708;28;20047;-68
2021/06/21 00:12:14;;;;;;;14.80;2.65;;;;;;;15.75;94.99;95473.94;5113984;28;20039;-68
2021/06/21 00:14:40;;;;;;;13.85;3.00;;;;;;;15.74;95.06;95475.03;5114237;28;20119;-67
2021/06/21 00:17:06;;;;;;;14.07;2.97;;;;;;;15.83;95.30;95475.19;5095758;28;20047;-66
2021/06/21 00:19:32;;;;;;;12.02;2.65;;;;;;;15.73;95.12;95473.44;5113298;28;20067;-67
2021/06/21 00:21:58;;;;;;;16.23;2.70;;;;;;;15.84;95.17;95461.63;5113488;28;20067;-67
2021/06/21 00:24:28;;;;;;;11.73;3.05;;;;;;;15.89;94.99;95464.22;5114436;28;20126;-67
2021/06/21 00:26:54;;;;;;;14.05;2.92;;;;;;;15.94;94.46;95468.66;5114517;28;20521;-66
2021/06/21 00:29:20;;;;;;;13.13;2.90;;;;;;;15.92;94.31;95471.56;5115278;28;20040;-67
2021/06/21 00:31:46;;;;;;;11.27;2.90;;;;;;;15.96;94.33;95466.50;5113533;28;20098;-66
2021/06/21 00:34:12;;;;;;;12.30;2.95;;;;;;;15.94;94.13;95469.44;5114388;28;20074;-70
2021/06/21 00:36:38;;;;;;;11.85;2.60;;;;;;;15.90;94.53;95468.44;5123740;28;20036;-70
2021/06/21 00:39:06;;;;;;;9.38;2.50;;;;;;;15.86;94.75;95464.78;5115236;28;20043;-69
2021/06/21 00:41:34;;;;;;;12.43;3.40;;;;;;;15.87;94.82;95457.59;5129798;28;20096;-70
2021/06/21 00:44:00;;;;;;;12.70;2.83;;;;;;;15.85;95.08;95452.59;5125286;28;20039;-71
2021/06/21 00:46:26;;;;;;;14.10;3.25;;;;;;;15.86;94.83;95451.50;5103122;28;20044;-71
2021/06/21 00:48:55;;;;;;;14.40;3.00;;;;;;;15.86;94.84;95461.34;5098626;28;20097;-71
2021/06/21 00:51:21;;;;;;;13.05;2.70;;;;;;;15.96;94.27;95472.59;5114334;28;20059;-70
2021/06/21 00:53:47;;;;;;;12.63;2.42;;;;;;;16.17;93.10;95472.28;5113080;28;20435;-70
2021/06/21 00:56:13;;;;;;;12.25;2.75;;;;;;;16.07;92.74;95472.44;5113289;28;20039;-70
2021/06/21 00:58:40;;;;;;;14.07;3.05;;;;;;;15.94;93.56;95466.00;5113833;28;20401;-71
2021/06/21 01:01:06;;;;;;;11.50;2.63;;;;;;;15.99;93.40;95466.72;5113405;28;20105;-71
2021/06/21 01:03:32;;;;;;;12.50;2.63;;;;;;;15.88;94.01;95467.94;5113317;28;20383;-71
2021/06/21 01:05:58;;;;;;;13.82;2.85;;;;;;;15.87;94.39;95469.00;5113325;28;20497;-71
2021/06/21 01:08:23;;;;;;;11.25;2.75;;;;;;;15.92;93.87;95474.22;5113608;28;20050;-71
2021/06/21 01:10:52;;;;;;;10.38;2.92;;;;;;;15.86;94.40;95467.41;5113032;28;20477;-71
2021/06/21 01:14:05;;;;;;;11.82;2.90;;;;;;;15.83;94.54;95460.06;5113184;28;20058;-71
2021/06/21 01:16:36;;;;;;;12.00;3.28;;;;;;;15.90;94.36;95463.13;4993970;28;20433;-71
2021/06/21 01:19:10;;;;;;;12.75;2.55;;;;;;;15.84;94.37;95452.88;5104479;28;20422;-71
2021/06/21 01:22:23;;;;;;;11.38;2.88;;;;;;;15.83;93.82;95459.28;5094894;28;20506;-71
2021/06/21 01:27:38;;;;;;;9.80;2.50;;;;;;;15.77;93.91;95469.16;5129019;22;20418;-67
2021/06/21 01:30:07;;;;;;;9.75;3.40;;;;;;;15.78;93.55;95476.03;5110151;28;20036;-67
2021/06/21 01:32:43;;;;;;;10.70;2.45;;;;;;;15.83;93.43;95461.91;5110468;28;20110;-67
2021/06/21 01:35:15;;;;;;;12.23;3.22;;;;;;;15.64;94.43;95475.16;5092202;28;20471;-68
2021/06/21 01:37:41;;;;;;;14.07;3.15;;;;;;;15.64;94.51;95480.44;5092166;28;20382;-67
2021/06/21 01:40:08;;;;;;;12.73;2.60;;;;;;;15.67;94.28;95475.38;5110482;28;20556;-68
2021/06/21 01:42:37;;;;;;;13.63;2.85;;;;;;;15.68;93.95;95476.94;5111438;28;20043;-65
2021/06/21 01:45:05;;;;;;;11.38;2.42;;;;;;;15.66;93.44;95478.31;5110650;28;20051;-66
2021/06/21 01:47:34;;;;;;;12.48;2.50;;;;;;;15.60;93.66;95477.53;5110269;28;20040;-68
2021/06/21 01:50:02;;;;;;;9.65;2.35;;;;;;;15.66;93.05;95478.31;5111185;28;20568;-69
2021/06/21 01:52:35;;;;;;;10.73;2.00;;;;;;;15.53;92.86;95477.13;5110586;28;20050;-67
2021/06/21 01:55:04;;;;;;;13.18;2.67;;;;;;;15.56;92.60;95467.81;5110734;28;20061;-67
2021/06/21 01:57:32;;;;;;;10.93;2.28;;;;;;;15.40;93.20;95470.66;5110617;28;20422;-66
2021/06/21 02:00:03;;;;;;;14.55;2.83;;;;;;;15.26;93.39;95463.66;5110641;28;20387;-68
2021/06/21 02:02:30;;;;;;;13.70;2.50;;;;;;;15.31;93.78;95466.25;5092203;28;20490;-68
2021/06/21 02:04:58;;;;;;;9.98;2.88;;;;;;;15.36;93.90;95477.59;5110624;28;20047;-68
2021/06/21 02:07:26;;;;;;;11.85;2.65;;;;;;;15.28;93.83;95478.19;5111272;28;20123;-65
2021/06/21 02:09:53;;;;;;;;;;;;;;;15.20;94.48;95470.88;5113359;28;20043;-66
2021/06/21 02:12:22;;;;;;;10.95;2.33;;;;;;;15.29;94.78;95468.41;5114338;28;19965;-66
2021/06/21 02:14:49;;;;;;;10.90;2.63;;;;;;;15.26;94.66;95466.31;5115176;28;20051;-65
2021/06/21 02:17:16;;;;;;;10.23;3.75;;;;;;;15.20;95.13;95470.88;5114414;28;20036;-66
2021/06/21 02:19:44;;;;;;;11.02;2.90;;;;;;;15.22;95.12;95464.22;5117891;28;20087;-66
2021/06/21 02:22:10;;;;;;;12.13;3.63;;;;;;;15.19;94.46;95474.63;5116704;28;20032;-67
2021/06/21 02:24:38;;;;;;;15.43;3.97;;;;;;;15.21;94.74;95473.25;5114609;28;20131;-68
2021/06/21 02:27:09;;;;;;;15.02;3.45;;;;;;;15.15;94.96;95461.13;5114810;28;20048;-68
2021/06/21 02:29:35;;;;;;;14.88;3.75;;;;;;;15.15;95.40;95473.59;5114649;27;20064;-68
2021/06/21 02:32:03;;;;;;;11.82;4.35;;;;;;;15.01;95.97;95472.69;5114435;28;20036;-68
2021/06/21 02:34:32;;;;;;;13.07;4.20;;;;;;;14.99;96.77;95480.13;5113996;28;20505;-68
2021/06/21 02:37:00;;;;;;;15.20;4.45;;;;;;;15.02;96.94;95480.38;5113905;28;20194;-68
2021/06/21 02:39:26;;;;;;;14.90;4.25;;;;;;;15.04;96.72;95485.38;5113885;28;20039;-68
2021/06/21 02:41:53;;;;;;;13.35;4.40;;;;;;;15.19;96.56;95490.50;5113040;28;20055;-68
2021/06/21 02:44:19;;;;;;;18.17;4.63;;;;;;;15.12;96.36;95495.34;5114414;28;20502;-67
2021/06/21 02:46:44;;;;;;;13.02;4.85;;;;;;;15.20;96.03;95502.69;5095845;28;20043;-68
2021/06/21 02:49:10;;;;;;;13.55;4.47;;;;;;;15.30;95.52;95523.78;5096161;28;20062;-68
2021/06/21 02:51:41;;;;;;;12.73;4.50;;;;;;;15.22;95.63;95527.03;5113753;28;20039;-68
2021/06/21 02:54:11;;;;;;;14.90;4.57;;;;;;;15.03;96.20;95534.91;5113543;28;20044;-68
2021/06/21 02:56:43;;;;;;;15.35;5.00;;;;;;;15.09;96.03;95538.31;5113276;28;20499;-68
2021/06/21 02:59:14;;;;;;;14.73;5.22;;;;;;;15.32;95.38;95552.63;5113626;28;20039;-68
2021/06/21 03:01:43;;;;;;;14.00;5.47;;;;;;;15.25;95.56;95545.03;5113433;28;20036;-67
2021/06/21 03:04:11;;;;;;;17.75;5.60;;;;;;;15.29;95.61;95548.69;5113314;28;20066;-67
2021/06/21 03:06:38;;;;;;;15.55;5.82;;;;;;;15.34;95.28;95546.00;5113334;28;20135;-67
2021/06/21 03:09:04;;;;;;;16.70;6.00;;;;;;;15.28;95.61;95547.09;5113634;28;20051;-68
2021/06/21 03:11:31;;;;;;;18.27;6.70;;;;;;;15.33;95.77;95557.63;5113628;28;20044;-68
2021/06/21 03:13:58;;;;;;;14.48;5.93;;;;;;;15.32;95.51;95545.47;5113329;28;20145;-68
2021/06/21 03:16:27;;;;;;;16.25;7.22;;;;;;;15.26;95.84;95545.81;5113116;28;20046;-68
2021/06/21 03:18:54;;;;;;;18.20;7.10;;;;;;;15.19;96.33;95540.84;5112996;28;20073;-67
2021/06/21 03:21:20;;;;;;;16.30;7.40;;;;;;;15.23;96.11;95544.53;5094333;28;20035;-68
2021/06/21 03:23:51;;;;;;;16.88;7.30;;;;;;;15.29;96.04;95548.69;5113033;28;20180;-66
2021/06/21 03:26:16;;;;;;;18.58;7.20;;;;;;;15.28;96.02;95546.31;5112834;28;20043;-67
2021/06/21 03:28:42;;;;;;;15.32;7.30;;;;;;;15.39;95.78;95543.28;5112840;28;20522;-67
2021/06/21 03:31:08;;;;;;;16.58;7.55;;;;;;;15.34;95.88;95540.69;5113118;28;20502;-69
2021/06/21 03:33:39;;;;;;;21.52;7.63;;;;;;;15.27;95.63;95540.22;5113445;28;20040;-68
2021/06/21 03:36:06;;;;;;;18.05;7.82;;;;;;;15.31;95.82;95543.91;5113282;28;20067;-67
2021/06/21 03:38:32;;;;;;;17.83;7.60;;;;;;;15.28;95.65;95541.78;5119416;28;20036;-67
2021/06/21 03:40:59;;;;;;;21.10;7.35;;;;;;;15.38;95.52;95546.97;5120095;28;20043;-67
2021/06/21 03:43:27;;;;;;;16.20;6.70;;;;;;;15.34;95.19;95551.28;5118103;28;20035;-67
2021/06/21 03:45:55;;;;;;;17.83;6.68;;;;;;;15.33;95.45;95560.28;5117708;28;20113;-67
2021/06/21 03:48:21;;;;;;;19.13;7.13;;;;;;;15.30;95.35;95557.44;5114383;28;20043;-68
2021/06/21 03:50:50;;;;;;;16.13;6.97;;;;;;;15.21;95.46;95562.53;5112479;28;20040;-69
2021/06/21 03:53:18;;;;;;;19.90;7.35;;;;;;;15.23;96.09;95558.56;5112787;28;20540;-70
2021/06/21 03:55:46;;;;;;;14.30;5.72;;;;;;;15.30;95.66;95555.56;5112730;28;20036;-73
2021/06/21 03:58:12;;;;;;;16.58;6.18;;;;;;;15.28;95.41;95556.91;5113132;28;20413;-72
2021/06/21 04:00:38;;;;;;;19.92;6.00;;;;;;;15.19;95.28;95548.78;5112662;28;20043;-72
2021/06/21 04:03:06;;;;;;;17.95;6.13;;;;;;;15.19;95.87;95549.59;5113434;28;20399;-72
2021/06/21 04:05:33;;;;;;;13.43;5.32;;;;;;;15.30;95.59;95554.78;5113223;28;20130;-72
2021/06/21 04:08:00;;;;;;;16.63;5.85;;;;;;;15.35;95.04;95552.88;5112852;28;20044;-70
2021/06/21 04:10:26;;;;;;;17.08;6.10;;;;;;;15.30;95.59;95550.28;5113052;28;20046;-67
2021/06/21 04:12:53;;;;;;;19.70;6.10;;;;;;;15.44;95.43;95548.53;5093954;28;20040;-68
2021/06/21 04:15:22;;;;;;;18.60;6.53;;;;;;;15.57;94.39;95554.22;5112071;28;20533;-66
2021/06/21 04:17:49;;;;;;;17.55;5.80;;;;;;;15.64;94.16;95552.81;5113032;28;20047;-67
2021/06/21 04:20:18;;;;;;;18.38;6.35;;;;;;;15.66;93.61;95560.50;5109107;28;20397;-68
2021/06/21 04:22:44;;;;;;;15.45;6.65;;;;;;;15.74;93.73;95559.88;5113279;28;20046;-70
2021/06/21 04:25:16;;;;;;;17.63;5.63;;;;;;;15.63;93.61;95555.75;5129636;27;20518;-70
2021/06/21 04:27:45;;;;;;;18.65;5.07;;;;;;;15.79;93.77;95549.19;5097938;28;20039;-68
2021/06/21 04:30:15;;;;;;;18.70;5.75;;;;;;;15.78;93.80;95558.25;5102303;28;20051;-67
2021/06/21 04:32:41;;;;;;;14.73;5.45;;;;;;;15.87;93.68;95558.38;5092257;28;20071;-67
2021/06/21 04:35:09;;;;;;;15.50;6.03;;;;;;;15.97;93.20;95560.91;5092686;28;20075;-67
2021/06/21 04:37:35;;;;;;;15.43;5.53;;;;;;;16.08;92.81;95554.38;5094339;28;20570;-67
2021/06/21 04:40:02;;;;;;;17.83;5.30;;;;;;;16.22;91.76;95551.81;5092308;28;20072;-68
2021/06/21 04:42:29;;;;;;;14.77;5.63;;;;;;;16.30;91.15;95556.47;5092813;28;20431;-68
2021/06/21 04:44:55;;;;;;;18.58;5.45;;;;;;;16.25;90.57;95559.19;5092912;28;20036;-67
2021/06/21 04:47:24;;;;;;;16.40;4.80;;;;;;;16.30;90.77;95555.69;5092670;28;20131;-66
2021/06/21 04:49:50;;;;;;;13.65;4.88;;;;;;;16.38;90.41;95547.88;5093404;28;20044;-67
2021/06/21 04:52:17;;;;;;;15.00;4.72;;;;;;;16.45;89.61;95540.31;5095809;28;20066;-68
2021/06/21 04:54:43;;;;;;;;;;;;;;;16.57;89.17;95544.38;5095388;28;20093;-67
2021/06/21 04:57:08;;;;;;;14.73;4.63;;;;;;;16.57;89.32;95539.09;5092453;28;19920;-67
2021/06/21 04:59:36;;;;;;;15.75;4.05;;;;;;;16.64;88.50;95539.53;5091801;28;20047;-67
2021/06/21 05:02:04;;;;;;;12.93;4.37;;;;;;;16.84;89.01;95533.09;5092555;28;20044;-66
2021/06/21 05:04:29;;;;;;;12.15;3.75;;;;;;;17.07;87.30;95536.72;5092810;28;20101;-67
2021/06/21 05:06:55;;;;;;;13.82;3.40;;;;;;;17.21;87.29;95538.28;5092563;28;20055;-67
2021/06/21 05:09:21;;;;;;;15.07;3.50;;;;;;;17.57;83.59;95535.75;5092634;28;20368;-67
2021/06/21 05:11:46;;;;;;;15.48;3.47;;;;;;;18.20;82.09;95530.75;5092464;28;20044;-67
2021/06/21 05:14:14;;;;;;;12.52;3.38;;;;;;;18.89;80.18;95531.28;5073809;28;20442;-68
2021/06/21 05:16:41;;;;;;;10.15;2.53;;;;;;;19.43;77.58;95537.34;5092369;28;20395;-66
2021/06/21 05:19:07;;;;;;;10.77;2.50;;;;;;;19.73;74.88;95533.06;5091743;28;20040;-67
2021/06/21 05:21:33;;;;;;;10.52;2.80;;;;;;;19.64;73.72;95532.25;5092119;28;20264;-68
2021/06/21 05:23:59;;;;;;;9.93;2.47;;;;;;;19.53;75.28;95529.06;5091697;28;20361;-67
2021/06/21 05:26:25;;;;;;;12.68;2.78;;;;;;;20.07;74.33;95532.38;5091735;28;20161;-67
2021/06/21 05:28:51;;;;;;;14.63;2.60;;;;;;;20.19;70.63;95540.53;5091873;28;20450;-67
2021/06/21 05:31:19;;;;;;;12.60;2.15;;;;;;;20.07;70.30;95543.06;5091957;28;20044;-67
2021/06/21 05:33:47;;;;;;;11.57;2.50;;;;;;;19.89;72.41;95538.75;5092060;28;20068;-68
2021/06/21 05:36:13;;;;;;;10.63;2.00;;;;;;;20.52;70.68;95536.66;5092022;28;20047;-67
2021/06/21 05:38:39;;;;;;;11.60;2.22;;;;;;;19.98;71.12;95550.25;5091816;28;20051;-68
2021/06/21 05:41:04;;;;;;;10.93;2.00;;;;;;;20.44;70.82;95540.84;5091165;28;20401;-67
2021/06/21 05:43:30;;;;;;;12.20;2.15;;;;;;;20.48;69.35;95544.50;5093653;28;20123;-67
2021/06/21 05:45:56;;;;;;;11.75;2.05;;;;;;;20.49;68.90;95543.41;5095666;28;20059;-67
2021/06/21 05:48:22;;;;;;;8.18;1.83;;;;;;;20.88;68.51;95539.00;5096187;28;20032;-67
2021/06/21 05:50:50;;;;;;;9.35;1.70;;;;;;;21.01;66.79;95542.56;5096164;28;20101;-67
2021/06/21 05:53:16;;;;;;;9.60;2.10;;;;;;;21.10;65.77;95544.13;5096223;28;20311;-67
2021/06/21 05:55:41;;;;;;;11.82;2.17;;;;;;;21.35;65.64;95544.38;5096128;28;20044;-67
2021/06/21 05:58:09;;;;;;;10.45;1.95;;;;;;;20.97;66.63;95537.06;5095507;28;20127;-67
2021/06/21 06:00:35;;;;;;;12.88;2.25;;;;;;;21.32;64.40;95551.16;5095301;28;20396;-67
2021/06/21 06:03:01;;;;;;;11.07;2.70;;;;;;;21.20;66.62;95546.47;5077589;28;20039;-68
2021/06/21 06:05:27;;;;;;;10.90;2.38;;;;;;;20.98;66.76;95541.31;5095262;28;20048;-68
2021/06/21 06:07:54;;;;;;;9.65;2.17;;;;;;;21.14;67.08;95542.34;5101463;28;20040;-67
2021/06/21 06:10:20;;;;;;;14.00;2.92;;;;;;;21.78;64.65;95546.88;5095436;28;20044;-68
2021/06/21 06:12:48;;;;;;;14.13;2.90;;;;;;;21.33;64.13;95543.91;5095165;28;20163;-67
2021/06/21 06:15:17;;;;;;;14.30;3.35;;;;;;;21.54;63.91;95539.44;5095672;28;20060;-68
2021/06/21 06:17:43;;;;;;;10.43;2.50;;;;;;;21.97;63.17;95557.16;5095234;28;20040;-68
2021/06/21 06:20:12;;;;;;;11.15;3.13;;;;;;;22.11;61.81;95551.59;5094788;28;20043;-68
2021/06/21 06:22:38;;;;;;;13.85;2.38;;;;;;;21.61;63.62;95558.44;5094639;28;20056;-68
2021/06/21 06:25:06;;;;;;;10.05;2.28;;;;;;;21.33;64.53;95568.78;5095198;28;20457;-68
2021/06/21 06:27:32;;;;;;;11.05;2.65;;;;;;;20.97;65.95;95558.44;5077834;28;20044;-67
2021/06/21 06:29:57;;;;;;;8.60;1.98;;;;;;;21.71;64.85;95563.44;5094993;28;20047;-67
2021/06/21 06:32:23;;;;;;;12.07;2.28;;;;;;;21.70;63.13;95558.41;5095547;28;20044;-67
2021/06/21 06:34:49;;;;;;;12.02;2.17;;;;;;;21.96;61.46;95555.59;5097889;28;20039;-68
2021/06/21 06:37:17;;;;;;;9.80;2.58;;;;;;;22.17;61.60;95551.09;5096175;28;20127;-67
2021/06/21 06:39:45;;;;;;;9.25;2.28;;;;;;;22.58;60.81;95548.72;5095556;28;20411;-68
2021/06/21 06:42:12;;;;;;;10.23;2.20;;;;;;;23.27;60.83;95542.72;5095524;28;20434;-67
2021/06/21 06:44:38;;;;;;;12.15;2.00;;;;;;;24.18;56.97;95542.53;5095599;28;20040;-67
2021/06/21 06:47:04;;;;;;;9.25;1.90;;;;;;;24.66;55.30;95546.25;5095869;28;20548;-66
2021/06/21 06:49:30;;;;;;;9.02;2.70;;;;;;;24.41;55.86;95545.53;5095336;28;20057;-68
2021/06/21 06:51:56;;;;;;;11.10;2.20;;;;;;;24.82;54.16;95547.84;5095120;28;20048;-67
2021/06/21 06:54:27;;;;;;;9.40;1.90;;;;;;;24.38;54.77;95556.94;5094340;28;20105;-67
2021/06/21 06:57:01;;;;;;;8.85;2.28;;;;;;;24.38;54.25;95562.31;5094957;28;20070;-67
2021/06/21 06:59:31;;;;;;;9.05;2.00;;;;;;;23.93;56.21;95568.63;5094582;28;20043;-68
2021/06/21 07:01:58;;;;;;;7.38;1.70;;;;;;;23.77;56.64;95577.34;5094765;28;20075;-67
2021/06/21 07:04:26;;;;;;;8.00;1.90;;;;;;;23.74;56.23;95575.34;5076240;28;20051;-67
2021/06/21 07:06:52;;;;;;;11.40;2.60;;;;;;;24.28;54.50;95583.16;5094422;28;20040;-67
2021/06/21 07:09:19;;;;;;;13.57;2.70;;;;;;;24.06;55.36;95589.00;5094161;28;20104;-67
2021/06/21 07:11:47;;;;;;;8.57;1.90;;;;;;;25.12;52.13;95579.81;5094530;28;20028;-68
2021/06/21 07:14:13;;;;;;;10.93;1.80;;;;;;;24.06;53.94;95579.06;5094184;28;20090;-67
2021/06/21 07:16:40;;;;;;;12.60;2.17;;;;;;;24.75;52.74;95577.22;5093998;28;20044;-67
2021/06/21 07:19:09;;;;;;;9.93;2.10;;;;;;;25.27;51.94;95573.66;5093912;28;20047;-67
2021/06/21 07:21:35;;;;;;;12.05;2.20;;;;;;;25.67;50.65;95561.97;5093561;28;20115;-67
2021/06/21 07:24:01;;;;;;;7.95;1.80;;;;;;;26.18;48.62;95570.88;5093994;28;20147;-67
2021/06/21 07:26:29;;;;;;;9.95;2.10;;;;;;;25.77;49.78;95574.94;5085797;22;20515;-66
2021/06/21 07:28:55;;;;;;;10.18;2.30;;;;;;;24.83;51.24;95570.16;5074493;28;20071;-66
2021/06/21 07:31:21;;;;;;;8.40;2.05;;;;;;;24.44;51.67;95571.75;5075336;28;20477;-66
2021/06/21 07:33:48;;;;;;;12.55;2.13;;;;;;;23.69;54.50;95567.53;5056863;28;20124;-66
2021/06/21 07:36:14;;;;;;;10.55;1.90;;;;;;;23.90;53.97;95570.09;5074800;28;20036;-66
2021/06/21 07:38:42;;;;;;;10.02;1.80;;;;;;;25.23;50.29;95559.31;5080064;28;20043;-67
2021/06/21 07:41:09;;;;;;;11.27;2.20;;;;;;;25.41;49.23;95561.72;5079732;28;20056;-66
2021/06/21 07:43:35;;;;;;;9.48;1.70;;;;;;;26.10;46.43;95568.41;5074273;28;20071;-67
2021/06/21 07:46:01;;;;;;;11.90;2.00;;;;;;;25.58;49.03;95564.06;5074635;28;20044;-66
2021/06/21 07:48:26;;;;;;;12.07;1.70;;;;;;;26.41;47.19;95562.13;5074743;28;20040;-67
2021/06/21 07:50:53;;;;;;;9.88;2.15;;;;;;;26.69;45.92;95567.34;5075255;28;20092;-67
2021/06/21 07:53:20;;;;;;;9.65;1.88;;;;;;;25.79;47.05;95561.13;5074389;28;20047;-67
2021/06/21 07:55:46;;;;;;;8.98;2.05;;;;;;;27.09;44.73;95556.22;5074394;28;20504;-67
2021/06/21 07:58:12;;;;;;;8.50;1.90;;;;;;;27.56;43.75;95568.63;5074360;28;20089;-67
2021/06/21 08:00:41;;;;;;;14.45;2.17;;;;;;;29.12;41.03;95571.25;5074695;28;20492;-67
2021/06/21 08:03:10;;;;;;;12.70;2.00;;;;;;;28.22;42.30;95572.78;5056527;28;20087;-67
2021/06/21 08:05:37;;;;;;;9.77;1.73;;;;;;;27.54;42.72;95572.81;5074644;28;20079;-67
2021/06/21 08:08:08;;;;;;;8.73;1.52;;;;;;;28.05;41.22;95572.50;5056950;28;20071;-66
2021/06/21 08:10:34;;;;;;;11.45;2.20;;;;;;;26.97;43.07;95571.78;5074076;28;20048;-67
2021/06/21 08:13:00;;;;;;;9.63;1.67;;;;;;;27.01;43.18;95567.97;5074156;28;20048;-67
2021/06/21 08:15:26;;;;;;;9.73;2.05;;;;;;;27.07;42.81;95565.81;5074493;28;20045;-67
2021/06/21 08:17:52;;;;;;;9.32;1.92;;;;;;;26.94;42.48;95567.84;5073835;28;20040;-67
2021/06/21 08:20:18;;;;;;;8.80;1.90;;;;;;;26.73;42.28;95567.44;5074401;28;20043;-67
2021/06/21 08:22:44;;;;;;;9.00;2.00;;;;;;;26.63;43.75;95568.78;5074184;28;20044;-67
2021/06/21 08:25:15;;;;;;;11.18;1.83;;;;;;;27.01;42.35;95570.69;5055763;28;20048;-67
2021/06/21 08:27:40;;;;;;;11.50;2.53;;;;;;;27.65;42.04;95565.66;5074588;28;20114;-67
2021/06/21 08:30:09;;;;;;;8.68;2.08;;;;;;;28.16;41.24;95570.75;5074429;28;20431;-66
2021/06/21 08:32:34;;;;;;;9.40;2.00;;;;;;;28.28;40.57;95575.94;5073538;28;20515;-67
2021/06/21 08:35:00;;;;;;;7.88;1.90;;;;;;;28.79;38.40;95580.91;5074657;28;20044;-66
2021/06/21 08:37:26;;;;;;;10.55;1.88;;;;;;;29.37;37.06;95577.69;5074233;28;20052;-65
2021/06/21 08:39:54;;;;;;;8.02;1.90;;;;;;;28.84;38.33;95575.13;5073364;28;20044;-67
2021/06/21 08:42:21;;;;;;;7.97;2.20;;;;;;;28.85;38.94;95574.00;5055973;28;20391;-67
2021/06/21 08:44:47;;;;;;;10.00;1.90;;;;;;;29.64;38.00;95572.16;5074291;28;20050;-66
2021/06/21 08:47:19;;;;;;;9.57;1.80;;;;;;;29.43;38.51;95570.00;5074194;28;20094;-67
2021/06/21 08:49:48;;;;;;;8.43;1.92;;;;;;;29.86;37.36;95565.75;5055929;28;20040;-66
2021/06/21 08:52:16;;;;;;;10.43;2.70;;;;;;;29.60;38.32;95568.63;5073669;28;20670;-66
2021/06/21 08:54:42;;;;;;;11.70;2.30;;;;;;;29.87;37.87;95558.41;5074108;28;20051;-66
2021/06/21 08:57:09;;;;;;;8.43;2.78;;;;;;;29.79;37.25;95562.97;5073579;28;20112;-67
2021/06/21 08:59:38;;;;;;;8.73;1.98;;;;;;;29.93;37.69;95565.81;5073917;28;20461;-66
2021/06/21 09:02:04;;;;;;;8.02;1.90;;;;;;;30.10;36.90;95566.31;5055141;28;20045;-66
2021/06/21 09:04:35;;;;;;;9.77;2.03;;;;;;;29.59;36.89;95564.34;5055652;28;20060;-67
2021/06/21 09:07:15;;;;;;;7.05;1.88;;;;;;;30.40;34.60;95566.91;5073660;28;20098;-67
2021/06/21 09:09:40;;;;;;;9.57;1.90;;;;;;;29.43;37.53;95567.28;5072808;28;20041;-66
2021/06/21 09:12:07;;;;;;;8.98;2.30;;;;;;;29.97;36.16;95555.75;5073149;28;20051;-67
2021/06/21 09:14:35;;;;;;;5.88;1.67;;;;;;;29.56;36.63;95559.69;5073486;28;20041;-66
2021/06/21 09:17:04;;;;;;;8.50;2.03;;;;;;;29.65;37.01;95565.56;5073858;28;20055;-67
2021/06/21 09:19:42;;;;;;;6.18;1.58;;;;;;;29.85;36.75;95560.69;5072526;28;20504;-66
2021/06/21 09:22:20;;;;;;;9.48;1.75;;;;;;;29.40;37.07;95557.97;5073745;28;20280;-67
2021/06/21 09:24:48;;;;;;;6.85;1.92;;;;;;;29.25;37.31;95564.41;5074985;28;20064;-67
2021/06/21 09:27:18;;;;;;;8.52;1.80;;;;;;;29.15;37.73;95565.06;5073622;28;20114;-67
2021/06/21 09:29:44;;;;;;;13.85;3.78;;;;;;;28.84;37.22;95553.47;5072902;28;20044;-66
2021/06/21 09:32:13;;;;;;;8.05;1.90;;;;;;;28.80;35.89;95560.78;5055321;28;20589;-67
2021/06/21 09:34:41;;;;;;;7.85;1.60;;;;;;;29.47;36.14;95549.13;5072807;28;20119;-66
2021/06/21 09:37:11;;;;;;;8.68;1.80;;;;;;;29.32;35.75;95550.91;5054957;28;20071;-66
2021/06/21 09:39:47;;;;;;;7.05;1.63;;;;;;;29.11;37.75;95553.41;5072934;28;20040;-67
2021/06/21 09:42:17;;;;;;;8.75;1.75;;;;;;;28.15;38.09;95545.63;5054561;28;20504;-67
2021/06/21 09:44:45;;;;;;;8.65;1.73;;;;;;;28.21;39.06;95556.91;5073305;28;20032;-67
2021/06/21 09:47:21;;;;;;;8.82;1.73;;;;;;;27.34;39.80;95553.19;5072929;28;20045;-67
2021/06/21 09:50:14;;;;;;;8.80;1.80;;;;;;;27.62;39.23;95547.50;5072867;28;20435;-67
2021/06/21 09:52:48;;;;;;;7.50;1.85;;;;;;;27.17;40.15;95555.19;5073304;28;20040;-67
2021/06/21 09:55:27;;;;;;;8.60;1.75;;;;;;;27.05;41.45;95557.25;5054307;28;20044;-67
2021/06/21 09:58:21;;;;;;;7.93;1.80;;;;;;;26.19;41.20;95560.88;5072884;28;20037;-66
2021/06/21 10:00:50;;;;;;;8.52;1.90;;;;;;;26.08;42.57;95563.34;5073320;28;20079;-66
2021/06/21 10:03:21;;;;;;;6.80;1.70;;;;;;;26.08;43.91;95559.88;5073470;28;20177;-66
2021/06/21 10:06:05;;;;;;;8.40;1.80;;;;;;;25.96;43.16;95558.06;5072773;28;20139;-67
2021/06/21 10:08:42;;;;;;;7.93;1.60;;;;;;;25.79;42.19;95558.44;5073479;28;20062;-67
2021/06/21 10:11:27;;;;;;;8.05;1.90;;;;;;;25.82;42.91;95563.88;5075321;28;20040;-66
2021/06/21 10:13:53;;;;;;;7.53;1.60;;;;;;;25.94;43.09;95556.84;5056732;28;20147;-67
2021/06/21 10:16:19;;;;;;;11.60;1.80;;;;;;;25.99;43.13;95551.19;5074529;28;20045;-67
2021/06/21 10:18:46;;;;;;;7.85;1.40;;;;;;;25.67;41.97;95556.59;5073852;28;20044;-66
2021/06/21 10:21:12;;;;;;;5.93;1.40;;;;;;;25.66;40.30;95549.63;5072953;28;20041;-67
2021/06/21 10:23:40;;;;;;;7.88;1.83;;;;;;;25.76;41.13;95554.50;5073248;28;20047;-68
2021/06/21 10:26:07;;;;;;;5.25;1.30;;;;;;;25.90;40.75;95544.06;5071978;28;20071;-68
2021/06/21 10:28:34;;;;;;;7.65;1.58;;;;;;;25.60;42.96;95537.56;5073857;28;20052;-67
2021/06/21 10:31:00;;;;;;;7.38;1.42;;;;;;;25.60;41.00;95534.84;5075066;28;20140;-67
2021/06/21 10:33:26;;;;;;;11.05;2.05;;;;;;;25.63;41.78;95532.25;5076263;28;20047;-67
2021/06/21 10:35:57;;;;;;;9.77;1.75;;;;;;;26.02;41.04;95528.94;5076301;28;20037;-67
2021/06/21 10:38:23;;;;;;;6.70;1.50;;;;;;;25.91;40.78;95528.69;5076166;28;20075;-68
2021/06/21 10:40:54;;;;;;;7.10;1.75;;;;;;;26.03;39.22;95535.88;5058726;28;20044;-67
2021/06/21 10:43:44;;;;;;;9.20;1.83;;;;;;;26.10;39.38;95541.44;5076776;28;20113;-67
2021/06/21 10:46:27;;;;;;;8.40;1.52;;;;;;;25.79;38.78;95531.50;5075952;28;20045;-67
2021/06/21 10:49:32;;;;;;;5.82;1.35;;;;;;;25.58;39.15;95535.22;5072736;28;20045;-66
2021/06/21 10:52:00;;;;;;;6.15;1.50;;;;;;;25.92;39.75;95533.72;5067516;28;20056;-67
2021/06/21 10:54:27;;;;;;;6.88;1.50;;;;;;;25.98;38.71;95528.06;5076371;28;20507;-67
2021/06/21 10:56:57;;;;;;;13.00;3.97;;;;;;;25.89;39.61;95533.66;5076109;28;20048;-66
2021/06/21 10:59:24;;;;;;;7.03;1.55;;;;;;;25.92;39.46;95532.94;5076305;28;20040;-67
2021/06/21 11:01:51;;;;;;;6.43;1.40;;;;;;;25.93;40.20;95526.41;5077301;28;20044;-67
2021/06/21 11:04:46;;;;;;;7.82;1.75;;;;;;;25.85;42.59;95530.09;5076199;28;20044;-66
2021/06/21 11:07:16;;;;;;;7.13;1.95;;;;;;;25.90;39.49;95532.53;5075998;28;20040;-66
2021/06/21 11:09:43;;;;;;;5.78;1.58;;;;;;;26.22;41.52;95527.84;5083130;28;20066;-66
2021/06/21 11:12:26;;;;;;;;;;;;;;;26.32;41.17;95538.06;5062260;28;20041;-67
2021/06/21 11:15:10;;;;;;;5.07;1.60;;;;;;;26.35;42.23;95542.75;5062385;28;20015;-67
2021/06/21 11:17:58;;;;;;;7.63;1.55;;;;;;;26.57;40.99;95541.31;5058009;28;20037;-68
2021/06/21 11:20:29;;;;;;;6.35;1.50;;;;;;;26.60;39.13;95546.00;5057900;28;20583;-66
2021/06/21 11:22:59;;;;;;;7.40;1.63;;;;;;;26.14;39.99;95540.38;5075840;28;20119;-66
2021/06/21 11:25:26;;;;;;;7.55;1.42;;;;;;;25.95;40.47;95544.94;5075764;28;20036;-66
2021/06/21 11:27:53;;;;;;;12.23;2.40;;;;;;;26.39;40.54;95542.84;5075944;28;20036;-68
2021/06/21 11:30:24;;;;;;;38.15;14.40;;;;;;;26.92;39.55;95549.31;5057067;28;20553;-66
2021/06/21 11:32:55;;;;;;;14.27;4.53;;;;;;;27.31;38.93;95538.47;5057301;28;20112;-67
2021/06/21 11:35:46;;;;;;;10.27;2.42;;;;;;;27.61;38.34;95543.25;5075737;28;20043;-67
2021/06/21 11:38:31;;;;;;;9.35;2.10;;;;;;;27.76;37.20;95546.94;5075241;28;20436;-66